Time;durP1;ratioP1;P1;durP2;ratioP2;P2;SDS_P1;SDS_P2;PMS_P1;PMS_P2;Temp;Humidity;BMP_temperature;BMP_pressure;BME280_temperature;BME280_humidity;BME280_pressure;Samples;Min_cycle;Max_cycle;Signal;HPM_P1;HPM_P2
2023/03/16 00:00:46;;;;;;;4.10;1.77;;;;;;;0.07;100.00;101236.38;5081928;29;20036;-73
2023/03/16 00:03:19;;;;;;;3.95;1.50;;;;;;;0.01;100.00;101237.13;5067885;29;20034;-72
2023/03/16 00:05:52;;;;;;;6.30;1.50;;;;;;;-0.04;100.00;101239.59;5078444;29;20087;-72
2023/03/16 00:08:23;;;;;;;3.60;1.38;;;;;;;-0.28;100.00;101239.16;5077813;29;20034;-72
2023/03/16 00:10:57;;;;;;;3.90;1.40;;;;;;;-0.29;100.00;101242.56;5082777;29;20433;-74
2023/03/16 00:13:28;;;;;;;7.27;1.50;;;;;;;-0.23;100.00;101245.25;5075534;29;20051;-72
2023/03/16 00:16:03;;;;;;;3.22;1.33;;;;;;;-0.21;100.00;101251.28;5064703;29;20047;-72
2023/03/16 00:18:37;;;;;;;4.88;1.30;;;;;;;-0.34;100.00;101245.06;5061890;29;20259;-74
2023/03/16 00:21:08;;;;;;;3.10;1.25;;;;;;;-0.42;100.00;101256.88;5082330;29;20039;-73
2023/03/16 00:23:38;;;;;;;5.10;1.50;;;;;;;-0.44;100.00;101255.09;5062777;29;20451;-72
2023/03/16 00:26:09;;;;;;;4.47;1.23;;;;;;;-0.41;100.00;101252.63;5082165;29;20298;-72
2023/03/16 00:28:41;;;;;;;4.22;1.40;;;;;;;-0.27;100.00;101251.16;5079037;29;20028;-72
2023/03/16 00:31:11;;;;;;;6.25;1.50;;;;;;;-0.33;100.00;101253.63;5083058;29;20028;-72
2023/03/16 00:33:42;;;;;;;6.13;1.52;;;;;;;-0.36;100.00;101251.00;5082898;29;20545;-73
2023/03/16 00:36:12;;;;;;;6.20;1.58;;;;;;;-0.39;100.00;101246.66;5083018;29;20034;-72
2023/03/16 00:38:48;;;;;;;5.85;1.40;;;;;;;-0.38;100.00;101247.53;5079074;29;20032;-72
2023/03/16 00:41:18;;;;;;;4.30;1.17;;;;;;;-0.36;100.00;101248.44;5085740;29;20432;-72
2023/03/16 00:43:50;;;;;;;4.50;1.23;;;;;;;-0.40;100.00;101250.06;5080707;29;20039;-72
2023/03/16 00:46:25;;;;;;;3.65;1.17;;;;;;;-0.27;100.00;101252.03;5072142;29;20032;-73
2023/03/16 00:48:56;;;;;;;;;;;;;;;-0.36;100.00;101251.00;5081428;29;20082;-72
2023/03/16 00:51:26;;;;;;;4.03;1.20;;;;;;;-0.42;100.00;101256.03;5075253;29;20303;-70
2023/03/16 00:53:56;;;;;;;7.47;1.40;;;;;;;-0.46;100.00;101261.91;5089756;29;20054;-73
2023/03/16 00:56:26;;;;;;;3.13;1.13;;;;;;;-0.59;100.00;101263.38;5077113;29;20103;-74
2023/03/16 00:58:57;;;;;;;5.47;1.00;;;;;;;-0.59;100.00;101257.41;5076955;29;20028;-72
2023/03/16 01:01:27;;;;;;;3.72;0.93;;;;;;;-0.48;100.00;101255.88;5069571;29;20050;-73
2023/03/16 01:03:58;;;;;;;3.50;0.95;;;;;;;-0.19;100.00;101257.31;5068573;29;20031;-73
2023/03/16 01:06:30;;;;;;;5.43;1.25;;;;;;;-0.38;100.00;101250.09;5085938;29;20039;-75
2023/03/16 01:09:01;;;;;;;4.43;1.27;;;;;;;-0.57;100.00;101248.88;5077710;29;20106;-72
2023/03/16 01:11:32;;;;;;;3.38;1.08;;;;;;;-0.63;100.00;101245.31;5089102;29;20170;-73
2023/03/16 01:14:04;;;;;;;5.50;1.13;;;;;;;-0.35;100.00;101247.59;5089027;29;20032;-73
2023/03/16 01:16:34;;;;;;;3.00;1.10;;;;;;;-0.43;100.00;101250.00;5091233;29;20115;-74
2023/03/16 01:19:05;;;;;;;3.50;1.00;;;;;;;-0.61;100.00;101244.53;5084077;29;20078;-74
2023/03/16 01:21:37;;;;;;;3.22;1.23;;;;;;;-0.68;100.00;101239.25;5088771;29;20047;-72
2023/03/16 01:24:08;;;;;;;2.50;0.93;;;;;;;-0.73;100.00;101235.72;5088169;29;20567;-73
2023/03/16 01:26:39;;;;;;;3.05;1.10;;;;;;;-0.79;100.00;101227.88;5124584;23;20098;-71
2023/03/16 01:29:11;;;;;;;2.60;0.90;;;;;;;-0.75;100.00;101234.84;5110765;29;20027;-71
2023/03/16 01:31:41;;;;;;;3.38;0.98;;;;;;;-0.87;100.00;101229.44;5109430;29;20035;-72
2023/03/16 01:34:15;;;;;;;4.72;1.10;;;;;;;-0.88;100.00;101220.03;5102628;29;20043;-73
2023/03/16 01:36:46;;;;;;;3.53;0.93;;;;;;;-0.58;100.00;101224.06;5110993;29;20510;-72
2023/03/16 01:39:17;;;;;;;3.08;0.85;;;;;;;-0.54;100.00;101222.41;5111992;29;20032;-70
2023/03/16 01:41:47;;;;;;;1.77;0.73;;;;;;;-0.69;100.00;101220.41;5107351;29;20038;-72
2023/03/16 01:44:21;;;;;;;5.18;0.90;;;;;;;-0.89;100.00;101221.72;5109060;29;20036;-73
2023/03/16 01:46:51;;;;;;;4.72;0.98;;;;;;;-0.92;100.00;101216.53;5103221;29;20038;-72
2023/03/16 01:49:27;;;;;;;6.88;1.05;;;;;;;-0.88;100.00;101217.47;5120217;29;20027;-73
2023/03/16 01:52:15;;;;;;;4.15;1.13;;;;;;;-0.76;100.00;101208.31;5120708;29;20031;-72
2023/03/16 01:54:53;;;;;;;7.65;0.90;;;;;;;-0.61;100.00;101213.72;5099580;29;20349;-70
2023/03/16 01:57:29;;;;;;;2.65;0.90;;;;;;;-0.73;100.00;101216.06;5098690;29;20035;-71
2023/03/16 02:00:20;;;;;;;3.38;0.90;;;;;;;-0.71;100.00;101221.22;5097149;29;20032;-70
2023/03/16 02:02:58;;;;;;;4.25;0.80;;;;;;;-0.65;100.00;101218.78;5102428;29;20027;-72
2023/03/16 02:05:37;;;;;;;1.92;0.70;;;;;;;-0.87;100.00;101211.50;5099908;29;20046;-70
2023/03/16 02:08:11;;;;;;;5.18;1.17;;;;;;;-0.90;100.00;101214.00;5104946;29;20058;-69
2023/03/16 02:10:42;;;;;;;3.63;0.88;;;;;;;-0.92;100.00;101208.81;5115125;29;20031;-72
2023/03/16 02:13:12;;;;;;;8.23;1.02;;;;;;;-0.75;100.00;101217.72;5100854;29;20541;-69
2023/03/16 02:15:43;;;;;;;4.97;0.70;;;;;;;-0.80;100.00;101208.19;5111851;29;20044;-70
2023/03/16 02:18:13;;;;;;;1.27;0.80;;;;;;;-0.78;100.00;101224.50;5098299;29;20122;-70
2023/03/16 02:21:09;;;;;;;5.65;0.93;;;;;;;-0.74;100.00;101216.88;5096411;29;20031;-71
2023/03/16 02:23:43;;;;;;;2.90;0.60;;;;;;;-0.79;100.00;101215.06;5095958;29;20031;-71
2023/03/16 02:26:33;;;;;;;3.40;0.73;;;;;;;-0.95;100.00;101220.72;5099153;29;20126;-70
2023/03/16 02:29:09;;;;;;;3.50;0.77;;;;;;;-1.10;100.00;101223.00;5098227;29;20024;-72
2023/03/16 02:31:39;;;;;;;2.13;0.75;;;;;;;-1.06;100.00;101219.66;5102426;29;20031;-69
2023/03/16 02:34:14;;;;;;;5.25;1.10;;;;;;;-1.14;100.00;101229.75;5118812;29;20046;-71
2023/03/16 02:36:47;;;;;;;3.05;0.88;;;;;;;-1.14;100.00;101232.31;5116335;29;20035;-71
2023/03/16 02:39:18;;;;;;;2.60;0.80;;;;;;;-1.19;100.00;101236.47;5105481;29;20046;-71
2023/03/16 02:41:48;;;;;;;5.38;1.00;;;;;;;-1.19;100.00;101235.59;5115355;29;20027;-71
2023/03/16 02:44:32;;;;;;;4.25;0.80;;;;;;;-1.17;100.00;101236.50;5112511;28;20027;-71
2023/03/16 02:47:08;;;;;;;3.10;0.85;;;;;;;-1.11;100.00;101228.91;5108994;29;20086;-71
2023/03/16 02:49:42;;;;;;;4.68;1.00;;;;;;;-0.97;100.00;101227.50;5121480;29;20027;-72
2023/03/16 02:52:12;;;;;;;4.90;1.00;;;;;;;-1.02;100.00;101222.31;5123589;29;20028;-72
2023/03/16 02:54:43;;;;;;;2.38;0.88;;;;;;;-1.01;100.00;101225.72;5107448;29;20047;-71
2023/03/16 02:57:13;;;;;;;3.97;0.80;;;;;;;-1.10;100.00;101221.28;5109711;29;20031;-70
2023/03/16 02:59:43;;;;;;;5.47;0.93;;;;;;;-1.07;100.00;101217.91;5113870;29;20062;-71
2023/03/16 03:02:14;;;;;;;4.35;0.70;;;;;;;-0.92;100.00;101210.53;5105558;29;20032;-71
2023/03/16 03:04:47;;;;;;;3.00;0.80;;;;;;;-1.03;100.00;101205.16;5117013;29;20042;-71
2023/03/16 03:07:17;;;;;;;4.97;0.90;;;;;;;-0.95;100.00;101207.88;5112921;29;20031;-72
2023/03/16 03:09:47;;;;;;;3.80;1.00;;;;;;;-1.07;100.00;101210.22;5116114;29;20536;-72
2023/03/16 03:12:18;;;;;;;1.80;0.73;;;;;;;-0.88;100.00;101204.63;5114533;29;20034;-72
2023/03/16 03:14:48;;;;;;;4.47;1.10;;;;;;;-0.90;100.00;101203.75;5106256;29;20027;-70
2023/03/16 03:17:18;;;;;;;8.27;2.50;;;;;;;-0.85;100.00;101197.00;5101935;29;20560;-71
2023/03/16 03:19:49;;;;;;;3.83;1.30;;;;;;;-1.05;99.34;101198.31;5104450;29;20482;-71
2023/03/16 03:22:19;;;;;;;6.03;1.20;;;;;;;-1.16;100.00;101200.63;5105977;29;20110;-72
2023/03/16 03:24:50;;;;;;;1.80;0.85;;;;;;;-1.09;100.00;101206.78;5106811;29;20191;-72
2023/03/16 03:27:21;;;;;;;2.47;1.08;;;;;;;-1.02;100.00;101198.34;5103890;29;20107;-72
2023/03/16 03:29:51;;;;;;;3.33;1.17;;;;;;;-1.06;100.00;101199.13;5110393;29;20110;-72
2023/03/16 03:32:21;;;;;;;4.53;0.90;;;;;;;-1.22;100.00;101200.50;5111204;29;20035;-71
2023/03/16 03:34:52;;;;;;;2.40;0.88;;;;;;;-1.39;100.00;101185.59;5105322;29;20078;-72
2023/03/16 03:37:23;;;;;;;3.10;0.75;;;;;;;-1.16;100.00;101189.50;5115450;29;20028;-72
2023/03/16 03:39:53;;;;;;;1.83;1.00;;;;;;;-1.31;100.00;101189.19;5106823;29;20458;-72
2023/03/16 03:42:24;;;;;;;7.25;0.95;;;;;;;-1.12;100.00;101193.84;5114280;29;20040;-73
2023/03/16 03:44:54;;;;;;;3.80;1.10;;;;;;;-1.34;100.00;101199.38;5108336;29;20102;-72
2023/03/16 03:47:24;;;;;;;2.78;0.90;;;;;;;-1.19;100.00;101207.41;5107268;29;20030;-71
2023/03/16 03:49:55;;;;;;;2.92;1.10;;;;;;;-1.35;100.00;101210.47;5113254;29;20485;-71
2023/03/16 03:52:26;;;;;;;3.95;1.20;;;;;;;-1.30;100.00;101198.59;5100603;29;20087;-71
2023/03/16 03:54:57;;;;;;;8.38;1.27;;;;;;;-1.21;100.00;101206.50;5103338;29;20038;-72
2023/03/16 03:57:27;;;;;;;3.67;0.95;;;;;;;-1.29;100.00;101203.78;5107799;29;20405;-72
2023/03/16 03:59:57;;;;;;;10.68;1.10;;;;;;;-1.31;100.00;101209.69;5107339;29;20037;-72
2023/03/16 04:02:27;;;;;;;2.55;1.00;;;;;;;-1.47;100.00;101216.19;5107029;29;20035;-71
2023/03/16 04:04:58;;;;;;;3.75;1.10;;;;;;;-1.45;100.00;101206.81;5111087;29;20271;-72
2023/03/16 04:07:28;;;;;;;6.00;1.73;;;;;;;-1.35;100.00;101197.66;5094095;29;20061;-71
2023/03/16 04:09:58;;;;;;;3.17;0.93;;;;;;;-1.34;100.00;101199.38;5111436;29;20039;-72
2023/03/16 04:12:29;;;;;;;4.25;0.90;;;;;;;-1.38;100.00;101207.84;5116345;29;20548;-72
2023/03/16 04:14:59;;;;;;;2.15;1.00;;;;;;;-1.34;100.00;101202.81;5112032;29;20039;-71
2023/03/16 04:17:29;;;;;;;4.18;1.00;;;;;;;-1.38;100.00;101212.97;5102161;29;20512;-71
2023/03/16 04:20:01;;;;;;;5.43;1.10;;;;;;;-1.30;100.00;101206.28;5110661;29;20067;-72
2023/03/16 04:22:31;;;;;;;5.47;1.10;;;;;;;-1.40;100.00;101212.91;5108883;29;20495;-72
2023/03/16 04:25:04;;;;;;;2.10;0.80;;;;;;;-1.47;100.00;101212.75;5109899;29;20071;-72
2023/03/16 04:27:35;;;;;;;11.38;1.20;;;;;;;-1.49;100.00;101207.59;5105867;29;20038;-71
2023/03/16 04:30:10;;;;;;;3.25;0.93;;;;;;;-1.43;100.00;101215.41;5118217;29;20027;-72
2023/03/16 04:32:40;;;;;;;3.05;1.27;;;;;;;-1.32;100.00;101210.53;5116837;29;20036;-72
2023/03/16 04:35:10;;;;;;;4.55;1.27;;;;;;;-1.43;100.00;101212.00;5106737;29;20141;-70
2023/03/16 04:37:41;;;;;;;1.75;0.93;;;;;;;-1.47;100.00;101207.63;5117336;29;20031;-72
2023/03/16 04:40:14;;;;;;;5.30;1.30;;;;;;;-1.50;100.00;101218.69;5119619;29;20299;-72
2023/03/16 04:42:46;;;;;;;2.25;1.05;;;;;;;-1.43;100.00;101214.56;5100170;29;20577;-71
2023/03/16 04:45:17;;;;;;;4.55;1.10;;;;;;;-1.45;100.00;101218.75;5109334;29;20451;-72
2023/03/16 04:47:48;;;;;;;2.65;1.00;;;;;;;-1.53;100.00;101216.06;5102978;29;20066;-71
2023/03/16 04:50:19;;;;;;;6.03;1.00;;;;;;;-1.51;100.00;101213.50;5112642;29;20405;-71
2023/03/16 04:52:50;;;;;;;5.53;1.10;;;;;;;-1.45;100.00;101211.06;5117682;29;20035;-71
2023/03/16 04:55:21;;;;;;;1.90;0.75;;;;;;;-1.43;100.00;101215.41;5106201;29;20062;-71
2023/03/16 04:57:52;;;;;;;1.77;0.82;;;;;;;-1.49;100.00;101207.59;5115058;29;20089;-71
2023/03/16 05:00:22;;;;;;;2.67;0.80;;;;;;;-1.41;100.00;101212.91;5116563;29;20031;-72
2023/03/16 05:02:53;;;;;;;6.50;1.13;;;;;;;-1.46;100.00;101219.59;5113195;29;20096;-73
2023/03/16 05:05:23;;;;;;;5.38;1.20;;;;;;;-1.50;100.00;101207.53;5105888;29;20118;-72
2023/03/16 05:07:53;;;;;;;6.65;0.80;;;;;;;-1.52;100.00;101209.22;5113874;29;20027;-71
2023/03/16 05:10:24;;;;;;;3.38;0.77;;;;;;;-1.47;100.00;101212.75;5107717;29;20110;-71
2023/03/16 05:12:54;;;;;;;5.25;0.80;;;;;;;-1.51;100.00;101216.06;5109514;29;20038;-71
2023/03/16 05:15:25;;;;;;;5.80;0.65;;;;;;;-1.51;100.00;101213.50;5105323;29;20497;-71
2023/03/16 05:17:55;;;;;;;6.57;1.10;;;;;;;-1.47;100.00;101212.75;5100287;29;20028;-71
2023/03/16 05:20:26;;;;;;;4.22;1.17;;;;;;;-1.53;100.00;101216.06;5102071;29;20107;-72
2023/03/16 05:22:56;;;;;;;5.10;1.20;;;;;;;-1.54;99.76;101216.00;5110561;29;20118;-72
2023/03/16 05:25:27;;;;;;;7.35;1.25;;;;;;;-1.53;100.00;101220.31;5103767;29;20414;-71
2023/03/16 05:27:57;;;;;;;4.57;1.10;;;;;;;-1.51;100.00;101226.31;5109032;29;20494;-71
2023/03/16 05:30:27;;;;;;;4.80;0.88;;;;;;;-1.44;100.00;101223.09;5106370;29;20331;-71
2023/03/16 05:32:57;;;;;;;2.80;1.23;;;;;;;-1.46;100.00;101228.16;5104938;29;20849;-71
2023/03/16 05:35:28;;;;;;;2.70;0.82;;;;;;;-1.54;100.00;101221.13;5110721;29;20045;-72
2023/03/16 05:37:58;;;;;;;3.55;0.68;;;;;;;-1.49;100.00;101232.34;5114832;29;20037;-71
2023/03/16 05:40:29;;;;;;;3.38;0.82;;;;;;;-1.21;98.88;101216.75;5102240;29;20515;-71
2023/03/16 05:42:59;;;;;;;4.38;0.77;;;;;;;-1.10;98.04;101216.16;5104147;29;20188;-71
2023/03/16 05:45:30;;;;;;;8.80;0.77;;;;;;;-1.04;97.15;101215.41;5099562;29;20059;-71
2023/03/16 05:48:00;;;;;;;2.08;0.75;;;;;;;-0.93;97.47;101216.50;5108898;29;20082;-71
2023/03/16 05:50:30;;;;;;;3.05;0.60;;;;;;;-1.07;96.13;101208.50;5100274;29;20032;-71
2023/03/16 05:53:01;;;;;;;2.00;0.50;;;;;;;-0.90;96.71;101216.56;5105889;29;20115;-72
2023/03/16 05:55:31;;;;;;;2.80;0.80;;;;;;;-0.91;95.61;101209.72;5109407;29;20489;-71
2023/03/16 05:58:01;;;;;;;4.18;0.68;;;;;;;-1.01;96.26;101211.22;5106654;29;20020;-71
2023/03/16 06:00:32;;;;;;;5.55;0.90;;;;;;;-1.13;96.72;101204.94;5112775;29;20042;-71
2023/03/16 06:03:02;;;;;;;3.25;0.52;;;;;;;-0.88;98.64;101202.91;5105964;29;20037;-71
2023/03/16 06:05:32;;;;;;;2.72;0.57;;;;;;;-0.74;97.97;101201.50;5115941;29;20038;-71
2023/03/16 06:08:03;;;;;;;2.15;0.47;;;;;;;-0.83;96.75;101200.44;5112566;29;20072;-71
2023/03/16 06:10:34;;;;;;;4.40;0.70;;;;;;;-0.77;96.59;101201.44;5119395;29;20497;-71
2023/03/16 06:13:04;;;;;;;1.83;0.80;;;;;;;-0.68;96.79;101198.19;5114922;29;20097;-71
2023/03/16 06:15:34;;;;;;;2.30;0.70;;;;;;;-0.63;97.87;101199.13;5106809;29;20027;-72
2023/03/16 06:18:05;;;;;;;1.63;0.80;;;;;;;-0.51;98.28;101186.53;5104409;29;20114;-72
2023/03/16 06:20:35;;;;;;;3.20;0.80;;;;;;;-0.41;99.14;101183.31;5113590;29;20035;-71
2023/03/16 06:23:05;;;;;;;3.38;0.60;;;;;;;-0.38;99.45;101181.63;5075399;29;20039;-72
2023/03/16 06:25:36;;;;;;;3.75;0.60;;;;;;;-0.30;100.00;101182.66;5117895;29;20038;-72
2023/03/16 06:28:06;;;;;;;1.35;0.50;;;;;;;-0.26;100.00;101175.84;5116535;29;20437;-71
2023/03/16 06:30:37;;;;;;;1.40;0.63;;;;;;;-0.15;100.00;101169.22;5112240;29;20067;-71
2023/03/16 06:33:07;;;;;;;2.50;0.57;;;;;;;-0.02;100.00;101167.72;5102254;29;20079;-71
2023/03/16 06:35:38;;;;;;;1.40;0.52;;;;;;;0.04;100.00;101178.09;5113749;29;20134;-71
2023/03/16 06:38:08;;;;;;;1.20;0.60;;;;;;;0.07;100.00;101173.00;5110315;29;20474;-71
2023/03/16 06:40:40;;;;;;;5.07;0.70;;;;;;;0.23;100.00;101172.41;5107208;29;20042;-72
2023/03/16 06:43:10;;;;;;;2.88;0.70;;;;;;;0.29;100.00;101175.09;5106010;29;20469;-72
2023/03/16 06:45:42;;;;;;;2.05;0.63;;;;;;;0.54;100.00;101176.31;5113475;29;20240;-71
2023/03/16 06:48:12;;;;;;;5.68;0.65;;;;;;;0.82;100.00;101180.97;5110012;29;20474;-71
2023/03/16 06:50:44;;;;;;;2.22;0.77;;;;;;;1.09;99.82;101184.72;5107062;29;20043;-70
2023/03/16 06:53:15;;;;;;;5.80;0.90;;;;;;;1.43;98.76;101186.84;5113856;29;20118;-72
2023/03/16 06:55:45;;;;;;;3.13;0.70;;;;;;;1.67;98.00;101189.69;5109379;29;20114;-71
2023/03/16 06:58:15;;;;;;;6.03;0.73;;;;;;;2.10;96.45;101191.78;5107560;29;20039;-71
2023/03/16 07:00:45;;;;;;;2.80;0.77;;;;;;;2.37;93.39;101195.44;5095619;29;20457;-72
2023/03/16 07:03:16;;;;;;;3.72;0.68;;;;;;;2.70;94.02;101190.50;5119335;29;20046;-71
2023/03/16 07:05:46;;;;;;;1.75;0.70;;;;;;;2.93;93.35;101195.78;5104860;29;20055;-72
2023/03/16 07:08:17;;;;;;;6.18;0.80;;;;;;;3.22;90.03;101199.38;5114879;29;20423;-71
2023/03/16 07:10:49;;;;;;;2.92;0.73;;;;;;;3.41;87.81;101199.44;5105563;29;20028;-72
2023/03/16 07:13:19;;;;;;;1.85;0.60;;;;;;;3.60;88.10;101202.06;5116426;29;20404;-72
2023/03/16 07:15:51;;;;;;;3.25;0.50;;;;;;;3.76;85.67;101209.00;5107821;29;20031;-72
2023/03/16 07:18:21;;;;;;;3.38;0.70;;;;;;;3.80;85.25;101200.38;5104342;29;20106;-71
2023/03/16 07:20:53;;;;;;;2.80;0.88;;;;;;;3.87;83.43;101201.25;5109913;29;20537;-72
2023/03/16 07:23:24;;;;;;;7.38;0.80;;;;;;;4.08;83.93;101196.97;5118330;29;20066;-72
2023/03/16 07:25:54;;;;;;;1.05;0.50;;;;;;;4.09;83.61;101201.28;5114010;29;20485;-71
2023/03/16 07:28:26;;;;;;;4.68;0.80;;;;;;;4.38;84.53;101202.16;5104605;29;20086;-72
2023/03/16 07:30:57;;;;;;;3.45;0.93;;;;;;;4.63;84.21;101208.16;5114357;28;20039;-71
2023/03/16 07:33:27;;;;;;;3.80;1.10;;;;;;;4.93;84.06;101211.53;5115461;29;20436;-71
2023/03/16 07:35:57;;;;;;;3.65;0.70;;;;;;;5.79;81.40;101214.63;5107211;29;20102;-71
2023/03/16 07:38:27;;;;;;;3.38;0.80;;;;;;;6.07;77.20;101211.84;5107815;29;20031;-71
2023/03/16 07:40:59;;;;;;;2.17;0.70;;;;;;;6.18;76.93;101217.81;5119148;29;20087;-71
2023/03/16 07:43:29;;;;;;;3.00;0.73;;;;;;;6.71;75.23;101217.34;5112798;29;20059;-71
2023/03/16 07:46:00;;;;;;;1.75;0.70;;;;;;;6.54;76.13;101216.63;5105433;29;20077;-72
2023/03/16 07:48:31;;;;;;;3.72;0.90;;;;;;;6.58;75.95;101219.19;5106098;29;20143;-71
2023/03/16 07:51:01;;;;;;;3.72;1.00;;;;;;;7.66;72.40;101211.00;5112150;29;20122;-71
2023/03/16 07:53:32;;;;;;;3.00;0.80;;;;;;;7.22;74.16;101210.69;5112172;29;20370;-71
2023/03/16 07:56:02;;;;;;;2.90;0.80;;;;;;;7.33;70.86;101214.03;5113130;29;20031;-72
2023/03/16 07:58:33;;;;;;;2.40;0.70;;;;;;;8.14;70.08;101212.03;5114639;29;20496;-73
2023/03/16 08:01:03;;;;;;;3.78;0.88;;;;;;;8.09;68.86;101206.91;5110563;29;20041;-71
2023/03/16 08:03:33;;;;;;;4.72;0.90;;;;;;;8.86;65.43;101216.88;5100750;29;20047;-71
2023/03/16 08:06:04;;;;;;;5.13;0.85;;;;;;;9.27;65.40;101212.59;5102378;29;20062;-71
2023/03/16 08:08:34;;;;;;;3.45;0.93;;;;;;;10.57;64.22;101198.28;5115310;29;20066;-72
2023/03/16 08:11:05;;;;;;;5.00;0.80;;;;;;;11.66;61.73;101187.38;5105039;29;20114;-72
2023/03/16 08:13:35;;;;;;;3.78;0.90;;;;;;;11.59;58.87;101195.44;5116885;29;20090;-72
2023/03/16 08:16:09;;;;;;;1.67;0.60;;;;;;;12.29;59.57;101197.59;5105510;29;20027;-72
2023/03/16 08:18:41;;;;;;;2.97;1.02;;;;;;;12.82;57.62;101189.59;5101714;29;20019;-73
2023/03/16 08:21:11;;;;;;;4.60;0.70;;;;;;;12.30;58.57;101196.69;5091740;29;20032;-72
2023/03/16 08:23:47;;;;;;;3.42;1.10;;;;;;;11.59;56.73;101198.06;5102161;29;20030;-71
2023/03/16 08:26:20;;;;;;;2.45;0.70;;;;;;;12.38;57.29;101195.53;5109604;29;20490;-72
2023/03/16 08:28:51;;;;;;;2.38;0.70;;;;;;;13.07;56.73;101193.13;5106380;29;20450;-72
2023/03/16 08:31:24;;;;;;;2.85;0.88;;;;;;;13.21;54.83;101191.72;5103022;29;20106;-71
2023/03/16 08:33:55;;;;;;;3.30;0.70;;;;;;;12.38;56.65;101199.88;5105367;29;20433;-72
2023/03/16 08:36:27;;;;;;;1.52;0.50;;;;;;;12.89;55.52;101199.84;5115273;29;20039;-72
2023/03/16 08:38:58;;;;;;;3.13;1.00;;;;;;;13.22;53.19;101192.56;5106175;29;20035;-73
2023/03/16 08:41:29;;;;;;;2.35;0.80;;;;;;;13.63;54.63;101195.38;5121013;28;20035;-73
2023/03/16 08:44:00;;;;;;;2.83;0.82;;;;;;;13.29;53.46;101194.94;5116224;29;20038;-72
2023/03/16 08:46:31;;;;;;;2.50;0.80;;;;;;;12.77;55.21;101206.44;5117346;29;20510;-72
2023/03/16 08:49:01;;;;;;;4.72;1.02;;;;;;;11.40;55.20;101223.88;5123842;29;20110;-72
2023/03/16 08:51:32;;;;;;;2.45;0.80;;;;;;;12.49;53.89;101213.50;5124029;29;20030;-72
2023/03/16 08:54:02;;;;;;;2.58;0.63;;;;;;;12.93;52.92;101199.75;5109341;29;20620;-73
2023/03/16 08:56:32;;;;;;;3.60;0.93;;;;;;;10.70;57.39;101220.59;5122274;29;20038;-73
2023/03/16 08:59:04;;;;;;;2.92;0.82;;;;;;;11.42;55.62;101203.75;5123388;29;20023;-72
2023/03/16 09:01:34;;;;;;;2.42;0.68;;;;;;;10.80;56.60;101210.75;5096871;29;20040;-72
2023/03/16 09:04:05;;;;;;;5.68;1.13;;;;;;;10.24;59.65;101213.94;5103768;29;20375;-73
2023/03/16 09:06:35;;;;;;;1.77;0.80;;;;;;;9.78;60.74;101223.66;5108504;29;20043;-73
2023/03/16 09:09:08;;;;;;;2.58;0.90;;;;;;;9.88;59.91;101217.38;5094814;29;20027;-72
2023/03/16 09:11:39;;;;;;;2.92;0.73;;;;;;;9.81;61.22;101207.97;5104593;29;20040;-72
2023/03/16 09:14:10;;;;;;;1.85;0.90;;;;;;;10.74;59.82;101206.56;5114134;29;20031;-72
2023/03/16 09:16:40;;;;;;;2.42;0.80;;;;;;;10.09;61.53;101202.09;5105064;29;20482;-74
2023/03/16 09:19:12;;;;;;;1.95;0.80;;;;;;;9.26;62.70;101223.03;5109852;29;20024;-72
2023/03/16 09:21:43;;;;;;;2.30;0.70;;;;;;;10.81;61.00;101207.22;5122304;29;20042;-72
2023/03/16 09:24:13;;;;;;;2.55;0.75;;;;;;;10.09;60.76;101211.69;5119454;29;20382;-72
2023/03/16 09:26:44;;;;;;;3.08;0.88;;;;;;;9.32;63.81;101213.34;5114726;29;20044;-72
2023/03/16 09:29:15;;;;;;;4.70;1.27;;;;;;;9.10;66.85;101207.75;5101898;29;20096;-73
2023/03/16 09:31:46;;;;;;;2.95;0.80;;;;;;;8.52;66.13;101217.53;5118040;29;20406;-72
2023/03/16 09:34:17;;;;;;;5.78;0.90;;;;;;;8.75;65.92;101213.59;5119364;29;20496;-72
2023/03/16 09:36:47;;;;;;;3.40;0.77;;;;;;;8.67;66.24;101199.88;5118067;29;20065;-72
2023/03/16 09:39:18;;;;;;;1.80;0.73;;;;;;;8.94;66.21;101194.16;5105180;29;20032;-72
2023/03/16 09:42:03;;;;;;;3.40;0.75;;;;;;;8.90;64.78;101196.84;5119157;29;20404;-72
2023/03/16 09:44:41;;;;;;;3.22;0.77;;;;;;;8.86;65.68;101188.22;5109282;29;20031;-72
2023/03/16 09:47:12;;;;;;;3.17;0.60;;;;;;;9.05;64.39;101188.72;5106038;29;20039;-72
2023/03/16 09:49:46;;;;;;;2.80;0.65;;;;;;;9.12;63.68;101188.59;5101573;29;20054;-72
2023/03/16 09:52:43;;;;;;;2.47;0.63;;;;;;;8.83;63.56;101190.88;5108362;29;20050;-72
2023/03/16 09:55:30;;;;;;;4.40;0.80;;;;;;;8.48;64.23;101185.44;5099349;29;20114;-72
2023/03/16 09:58:05;;;;;;;3.17;0.43;;;;;;;8.77;62.21;101177.97;5109687;29;20377;-73
2023/03/16 10:00:45;;;;;;;2.00;0.50;;;;;;;9.14;61.16;101171.16;5101905;29;20032;-71
2023/03/16 10:03:35;;;;;;;4.15;0.52;;;;;;;9.07;59.16;101166.94;5103393;29;20122;-72
2023/03/16 10:06:10;;;;;;;2.00;0.45;;;;;;;9.54;62.31;101162.47;5106620;29;20063;-73
2023/03/16 10:08:59;;;;;;;1.80;0.60;;;;;;;9.34;60.41;101171.59;5090420;29;20115;-73
2023/03/16 10:11:48;;;;;;;4.43;0.55;;;;;;;8.98;58.12;101172.34;5107428;29;20043;-73
2023/03/16 10:14:44;;;;;;;4.00;0.85;;;;;;;8.98;56.92;101163.66;5087387;29;20070;-73
2023/03/16 10:17:18;;;;;;;1.17;0.28;;;;;;;9.01;55.92;101158.38;5104172;29;20398;-72
2023/03/16 10:20:05;;;;;;;1.05;0.40;;;;;;;9.11;56.24;101158.19;5110916;29;20039;-73
2023/03/16 10:22:43;;;;;;;1.70;0.45;;;;;;;8.99;58.64;101160.16;5109941;29;20035;-72
2023/03/16 10:25:22;;;;;;;1.55;0.40;;;;;;;8.84;56.65;101166.53;5099523;29;20058;-72
2023/03/16 10:27:53;;;;;;;2.78;0.50;;;;;;;8.61;57.50;101162.63;5111136;29;20632;-71
2023/03/16 10:30:33;;;;;;;0.93;0.40;;;;;;;8.57;53.99;101161.81;5113032;29;20027;-72
2023/03/16 10:33:19;;;;;;;1.25;0.30;;;;;;;8.89;55.62;101156.03;5103685;28;20046;-73
2023/03/16 10:36:02;;;;;;;2.85;0.50;;;;;;;8.86;54.67;101159.53;5107511;29;20059;-72
2023/03/16 10:38:37;;;;;;;0.93;0.28;;;;;;;8.73;55.92;101159.81;5107162;29;20035;-72
2023/03/16 10:41:16;;;;;;;1.17;0.32;;;;;;;8.97;54.43;101157.59;5118841;29;20099;-73
2023/03/16 10:43:51;;;;;;;2.17;0.38;;;;;;;9.25;57.86;101153.53;5117926;29;20046;-72
2023/03/16 10:46:27;;;;;;;1.75;0.52;;;;;;;9.40;55.27;101146.25;5085765;29;20504;-73
2023/03/16 10:48:59;;;;;;;;;;;;;;;9.51;55.39;101151.22;5105587;29;20107;-72
2023/03/16 10:51:33;;;;;;;1.83;0.57;;;;;;;9.11;53.94;101146.88;5105332;28;19918;-72
2023/03/16 10:54:13;;;;;;;1.55;0.40;;;;;;;9.22;53.90;101148.38;5103770;29;20042;-72
2023/03/16 10:56:44;;;;;;;4.57;0.57;;;;;;;8.99;53.86;101142.78;5108487;29;20043;-73
2023/03/16 10:59:27;;;;;;;2.05;0.35;;;;;;;9.30;55.35;101134.28;5093722;29;20463;-72
2023/03/16 11:01:59;;;;;;;0.98;0.40;;;;;;;9.34;55.42;101128.09;5104665;29;20031;-72
2023/03/16 11:04:31;;;;;;;1.05;0.30;;;;;;;9.24;54.35;101125.72;5105924;28;20035;-72
2023/03/16 11:07:01;;;;;;;0.52;0.30;;;;;;;9.52;54.90;101132.06;5109669;29;20529;-72
2023/03/16 11:09:33;;;;;;;2.45;0.50;;;;;;;9.25;55.86;101124.84;5115790;29;20027;-71
2023/03/16 11:12:24;;;;;;;0.80;0.38;;;;;;;9.27;55.53;101110.88;5104565;29;20564;-72
2023/03/16 11:15:11;;;;;;;1.65;0.40;;;;;;;9.17;54.38;101118.94;5103639;29;20054;-72
2023/03/16 11:17:50;;;;;;;2.78;0.43;;;;;;;8.97;55.22;101120.22;5100651;29;20034;-70
2023/03/16 11:20:27;;;;;;;3.25;0.55;;;;;;;9.38;56.65;101118.47;5102557;29;20532;-72
2023/03/16 11:22:59;;;;;;;0.98;0.25;;;;;;;9.57;56.23;101109.34;5105239;29;20428;-73
2023/03/16 11:25:40;;;;;;;2.00;0.50;;;;;;;9.62;57.19;101094.44;5113160;29;20445;-72
2023/03/16 11:28:16;;;;;;;2.70;0.40;;;;;;;9.55;55.35;101085.91;5110569;29;20114;-72
2023/03/16 11:31:23;;;;;;;2.65;0.50;;;;;;;9.20;53.53;101093.66;5108304;29;20035;-73
2023/03/16 11:33:56;;;;;;;0.93;0.40;;;;;;;9.23;52.50;101090.97;5103867;29;20039;-72
2023/03/16 11:36:37;;;;;;;0.85;0.28;;;;;;;9.31;55.25;101086.44;5115159;29;20035;-72
2023/03/16 11:39:27;;;;;;;2.08;0.38;;;;;;;9.26;52.51;101077.88;5116152;29;20114;-73
2023/03/16 11:42:38;;;;;;;1.13;0.30;;;;;;;9.28;54.84;101091.72;5108697;29;20031;-72
2023/03/16 11:45:15;;;;;;;0.40;0.30;;;;;;;9.40;54.71;101075.81;5108875;29;20401;-72
2023/03/16 11:48:03;;;;;;;1.48;0.43;;;;;;;9.48;54.24;101080.84;5103849;29;20038;-73
2023/03/16 11:51:00;;;;;;;0.75;0.32;;;;;;;9.42;53.04;101068.81;5109447;29;20031;-73